sensor_id;sensor_type;location;lat;lon;timestamp;pressure;altitude;pressure_sealevel;temperature;humidity
39243;BME280;29823;47.404;8.566;2022-10-31T00:01:25;97021.84;;;10.07;100.00
39243;BME280;29823;47.404;8.566;2022-10-31T00:03:55;97021.63;;;10.02;100.00
39243;BME280;29823;47.404;8.566;2022-10-31T00:06:23;97027.44;;;9.92;100.00
39243;BME280;29823;47.404;8.566;2022-10-31T00:08:53;97018.22;;;9.88;100.00
39243;BME280;29823;47.404;8.566;2022-10-31T00:11:21;97010.72;;;9.72;100.00
39243;BME280;29823;47.404;8.566;2022-10-31T00:13:49;97016.69;;;9.74;100.00
39243;BME280;29823;47.404;8.566;2022-10-31T00:16:20;97009.28;;;9.70;100.00
39243;BME280;29823;47.404;8.566;2022-10-31T00:18:48;97014.59;;;9.76;100.00
39243;BME280;29823;47.404;8.566;2022-10-31T00:21:18;97008.91;;;9.66;100.00
39243;BME280;29823;47.404;8.566;2022-10-31T00:23:46;97011.75;;;9.71;100.00
39243;BME280;29823;47.404;8.566;2022-10-31T00:26:14;97004.00;;;9.63;100.00
39243;BME280;29823;47.404;8.566;2022-10-31T00:28:42;97008.13;;;9.59;100.00
39243;BME280;29823;47.404;8.566;2022-10-31T00:31:11;97013.22;;;9.67;100.00
39243;BME280;29823;47.404;8.566;2022-10-31T00:33:40;97012.63;;;9.59;100.00
39243;BME280;29823;47.404;8.566;2022-10-31T00:36:11;97013.06;;;9.62;100.00
39243;BME280;29823;47.404;8.566;2022-10-31T00:38:41;97013.06;;;9.62;100.00
39243;BME280;29823;47.404;8.566;2022-10-31T00:41:09;97002.78;;;9.59;100.00
39243;BME280;29823;47.404;8.566;2022-10-31T00:43:37;97002.75;;;9.66;100.00
39243;BME280;29823;47.404;8.566;2022-10-31T00:46:05;96999.94;;;9.54;100.00
39243;BME280;29823;47.404;8.566;2022-10-31T00:48:33;96997.25;;;9.54;100.00
39243;BME280;29823;47.404;8.566;2022-10-31T00:51:01;97003.38;;;9.61;100.00
39243;BME280;29823;47.404;8.566;2022-10-31T00:53:29;96998.50;;;9.52;100.00
39243;BME280;29823;47.404;8.566;2022-10-31T00:55:58;96992.84;;;9.35;100.00
39243;BME280;29823;47.404;8.566;2022-10-31T00:58:26;97001.19;;;9.45;100.00
39243;BME280;29823;47.404;8.566;2022-10-31T01:00:53;96993.84;;;9.34;100.00
39243;BME280;29823;47.404;8.566;2022-10-31T01:03:23;97001.81;;;9.47;100.00
39243;BME280;29823;47.404;8.566;2022-10-31T01:05:58;97001.63;;;9.42;100.00
39243;BME280;29823;47.404;8.566;2022-10-31T01:08:26;97000.22;;;9.40;100.00
39243;BME280;29823;47.404;8.566;2022-10-31T01:11:01;97000.00;;;9.41;100.00
39243;BME280;29823;47.404;8.566;2022-10-31T01:13:29;96988.13;;;9.31;100.00
39243;BME280;29823;47.404;8.566;2022-10-31T01:15:57;97011.88;;;9.45;100.00
39243;BME280;29823;47.404;8.566;2022-10-31T01:18:26;96995.75;;;9.27;100.00
39243;BME280;29823;47.404;8.566;2022-10-31T01:21:02;97002.50;;;9.36;100.00
39243;BME280;29823;47.404;8.566;2022-10-31T01:23:31;97000.03;;;9.28;100.00
39243;BME280;29823;47.404;8.566;2022-10-31T01:26:06;97002.69;;;9.41;100.00
39243;BME280;29823;47.404;8.566;2022-10-31T01:28:35;96981.63;;;9.20;100.00
39243;BME280;29823;47.404;8.566;2022-10-31T01:31:06;96994.91;;;9.33;100.00
39243;BME280;29823;47.404;8.566;2022-10-31T01:33:34;96979.13;;;9.25;100.00
39243;BME280;29823;47.404;8.566;2022-10-31T01:36:11;96995.94;;;9.26;100.00
39243;BME280;29823;47.404;8.566;2022-10-31T01:38:39;96997.16;;;9.30;100.00
39243;BME280;29823;47.404;8.566;2022-10-31T01:41:09;96985.28;;;9.26;100.00
39243;BME280;29823;47.404;8.566;2022-10-31T01:43:47;96987.41;;;9.11;100.00
39243;BME280;29823;47.404;8.566;2022-10-31T01:46:19;96997.06;;;9.05;100.00
39243;BME280;29823;47.404;8.566;2022-10-31T01:48:49;96998.53;;;8.95;100.00
39243;BME280;29823;47.404;8.566;2022-10-31T01:51:20;96976.41;;;8.81;100.00
39243;BME280;29823;47.404;8.566;2022-10-31T01:53:48;96994.44;;;8.92;100.00
39243;BME280;29823;47.404;8.566;2022-10-31T01:56:20;96993.38;;;9.00;100.00
39243;BME280;29823;47.404;8.566;2022-10-31T01:58:48;96994.41;;;8.99;100.00
39243;BME280;29823;47.404;8.566;2022-10-31T02:01:16;96982.28;;;8.96;100.00
39243;BME280;29823;47.404;8.566;2022-10-31T02:03:46;96983.72;;;9.05;100.00
39243;BME280;29823;47.404;8.566;2022-10-31T02:06:27;96984.34;;;9.01;100.00
39243;BME280;29823;47.404;8.566;2022-10-31T02:08:59;96985.78;;;8.97;100.00
39243;BME280;29823;47.404;8.566;2022-10-31T02:11:29;96987.44;;;8.98;100.00
39243;BME280;29823;47.404;8.566;2022-10-31T02:13:58;96971.66;;;8.90;100.00
39243;BME280;29823;47.404;8.566;2022-10-31T02:16:27;96984.97;;;8.96;100.00
39243;BME280;29823;47.404;8.566;2022-10-31T02:18:55;96980.06;;;8.93;100.00
39243;BME280;29823;47.404;8.566;2022-10-31T02:21:30;96973.88;;;9.06;100.00
39243;BME280;29823;47.404;8.566;2022-10-31T02:27:16;96970.66;;;8.84;100.00
39243;BME280;29823;47.404;8.566;2022-10-31T02:30:09;96968.41;;;8.81;100.00
39243;BME280;29823;47.404;8.566;2022-10-31T02:32:47;96965.34;;;8.71;100.00
39243;BME280;29823;47.404;8.566;2022-10-31T02:35:28;96974.75;;;8.80;100.00
39243;BME280;29823;47.404;8.566;2022-10-31T02:38:04;96972.13;;;8.74;100.00
39243;BME280;29823;47.404;8.566;2022-10-31T02:40:36;96969.41;;;8.80;100.00
39243;BME280;29823;47.404;8.566;2022-10-31T02:43:09;96972.72;;;8.82;100.00
39243;BME280;29823;47.404;8.566;2022-10-31T02:45:49;96981.56;;;8.76;100.00
39243;BME280;29823;47.404;8.566;2022-10-31T02:48:23;96970.25;;;8.81;100.00
39243;BME280;29823;47.404;8.566;2022-10-31T02:50:55;96973.31;;;8.84;100.00
39243;BME280;29823;47.404;8.566;2022-10-31T02:53:24;96976.38;;;8.94;100.00
39243;BME280;29823;47.404;8.566;2022-10-31T02:55:58;96970.19;;;8.94;100.00
39243;BME280;29823;47.404;8.566;2022-10-31T02:58:29;96973.91;;;8.86;100.00
39243;BME280;29823;47.404;8.566;2022-10-31T03:01:02;96964.91;;;8.81;100.00
39243;BME280;29823;47.404;8.566;2022-10-31T03:03:43;96962.06;;;8.82;100.00
39243;BME280;29823;47.404;8.566;2022-10-31T03:06:20;96963.28;;;8.80;100.00
39243;BME280;29823;47.404;8.566;2022-10-31T03:08:57;96962.25;;;8.74;100.00
39243;BME280;29823;47.404;8.566;2022-10-31T03:11:32;96961.84;;;8.77;100.00
39243;BME280;29823;47.404;8.566;2022-10-31T03:14:09;96951.59;;;8.81;100.00
39243;BME280;29823;47.404;8.566;2022-10-31T03:16:44;96951.78;;;8.86;100.00
39243;BME280;29823;47.404;8.566;2022-10-31T03:19:17;96957.28;;;8.97;100.00
39243;BME280;29823;47.404;8.566;2022-10-31T03:21:50;96954.19;;;9.00;100.00
39243;BME280;29823;47.404;8.566;2022-10-31T03:24:20;96960.09;;;9.09;100.00
39243;BME280;29823;47.404;8.566;2022-10-31T03:26:52;96960.53;;;9.06;100.00
39243;BME280;29823;47.404;8.566;2022-10-31T03:29:24;96962.78;;;9.02;100.00
39243;BME280;29823;47.404;8.566;2022-10-31T03:31:56;96963.25;;;8.86;100.00
39243;BME280;29823;47.404;8.566;2022-10-31T03:34:28;96958.81;;;8.67;100.00
39243;BME280;29823;47.404;8.566;2022-10-31T03:36:59;96957.56;;;8.76;100.00
39243;BME280;29823;47.404;8.566;2022-10-31T03:39:29;96964.00;;;9.06;100.00
39243;BME280;29823;47.404;8.566;2022-10-31T03:42:00;96958.97;;;9.29;100.00
39243;BME280;29823;47.404;8.566;2022-10-31T03:44:30;96953.97;;;9.08;100.00
39243;BME280;29823;47.404;8.566;2022-10-31T03:47:01;96943.31;;;9.08;100.00
39243;BME280;29823;47.404;8.566;2022-10-31T03:49:32;96942.25;;;9.09;100.00
39243;BME280;29823;47.404;8.566;2022-10-31T03:52:03;96955.81;;;9.01;100.00
39243;BME280;29823;47.404;8.566;2022-10-31T03:54:37;96953.63;;;8.85;100.00
39243;BME280;29823;47.404;8.566;2022-10-31T03:57:14;96952.03;;;8.71;100.00
39243;BME280;29823;47.404;8.566;2022-10-31T03:59:48;96954.69;;;8.65;100.00
39243;BME280;29823;47.404;8.566;2022-10-31T04:02:22;96944.03;;;8.65;100.00
39243;BME280;29823;47.404;8.566;2022-10-31T04:04:54;96952.25;;;8.63;100.00
39243;BME280;29823;47.404;8.566;2022-10-31T04:07:25;96953.88;;;8.64;100.00
39243;BME280;29823;47.404;8.566;2022-10-31T04:09:56;96951.00;;;8.66;100.00
39243;BME280;29823;47.404;8.566;2022-10-31T04:12:26;96943.22;;;8.64;100.00
39243;BME280;29823;47.404;8.566;2022-10-31T04:14:56;96947.75;;;8.64;100.00
39243;BME280;29823;47.404;8.566;2022-10-31T04:17:27;96954.91;;;8.70;100.00
39243;BME280;29823;47.404;8.566;2022-10-31T04:20:00;96955.09;;;8.75;100.00
39243;BME280;29823;47.404;8.566;2022-10-31T04:22:28;96948.09;;;8.80;100.00
39243;BME280;29823;47.404;8.566;2022-10-31T04:24:56;96959.00;;;8.79;100.00
39243;BME280;29823;47.404;8.566;2022-10-31T04:27:23;96944.81;;;8.78;100.00
39243;BME280;29823;47.404;8.566;2022-10-31T04:29:51;96962.66;;;8.78;100.00
39243;BME280;29823;47.404;8.566;2022-10-31T04:32:19;96949.97;;;8.80;100.00
39243;BME280;29823;47.404;8.566;2022-10-31T04:34:46;96950.34;;;8.77;100.00
39243;BME280;29823;47.404;8.566;2022-10-31T04:37:15;96948.28;;;8.85;100.00
39243;BME280;29823;47.404;8.566;2022-10-31T04:39:43;96949.69;;;8.94;100.00
39243;BME280;29823;47.404;8.566;2022-10-31T04:42:11;96947.03;;;8.94;100.00
39243;BME280;29823;47.404;8.566;2022-10-31T04:44:38;96935.31;;;9.02;100.00
39243;BME280;29823;47.404;8.566;2022-10-31T04:47:06;96937.16;;;9.01;100.00
39243;BME280;29823;47.404;8.566;2022-10-31T04:49:34;96929.81;;;8.90;100.00
39243;BME280;29823;47.404;8.566;2022-10-31T04:52:02;96934.28;;;9.03;100.00
39243;BME280;29823;47.404;8.566;2022-10-31T04:54:31;96933.88;;;9.06;100.00
39243;BME280;29823;47.404;8.566;2022-10-31T04:56:58;96931.19;;;9.06;100.00
39243;BME280;29823;47.404;8.566;2022-10-31T04:59:26;96937.59;;;8.98;100.00
39243;BME280;29823;47.404;8.566;2022-10-31T05:01:54;96923.81;;;9.01;100.00
39243;BME280;29823;47.404;8.566;2022-10-31T05:04:22;96929.97;;;9.08;100.00
39243;BME280;29823;47.404;8.566;2022-10-31T05:06:49;96924.19;;;9.11;100.00
39243;BME280;29823;47.404;8.566;2022-10-31T05:09:17;96927.44;;;9.13;100.00
39243;BME280;29823;47.404;8.566;2022-10-31T05:11:46;96928.31;;;9.07;100.00
39243;BME280;29823;47.404;8.566;2022-10-31T05:14:14;96923.78;;;9.08;100.00
39243;BME280;29823;47.404;8.566;2022-10-31T05:16:42;96914.28;;;9.18;100.00
39243;BME280;29823;47.404;8.566;2022-10-31T05:19:09;96912.81;;;9.29;100.00
39243;BME280;29823;47.404;8.566;2022-10-31T05:21:37;96914.47;;;9.23;100.00
39243;BME280;29823;47.404;8.566;2022-10-31T05:24:05;96911.25;;;9.15;100.00
39243;BME280;29823;47.404;8.566;2022-10-31T05:26:33;96906.44;;;9.30;100.00
39243;BME280;29823;47.404;8.566;2022-10-31T05:29:02;96902.53;;;9.32;100.00
39243;BME280;29823;47.404;8.566;2022-10-31T05:31:30;96896.44;;;9.25;100.00
39243;BME280;29823;47.404;8.566;2022-10-31T05:33:58;96904.03;;;9.22;100.00
39243;BME280;29823;47.404;8.566;2022-10-31T05:36:26;96886.44;;;9.14;100.00
39243;BME280;29823;47.404;8.566;2022-10-31T05:38:53;96898.38;;;8.99;100.00
39243;BME280;29823;47.404;8.566;2022-10-31T05:41:21;96905.78;;;8.97;100.00
39243;BME280;29823;47.404;8.566;2022-10-31T05:43:49;96895.13;;;8.90;100.00
39243;BME280;29823;47.404;8.566;2022-10-31T05:46:18;96906.09;;;9.13;100.00
39243;BME280;29823;47.404;8.566;2022-10-31T05:48:46;96899.03;;;8.94;100.00
39243;BME280;29823;47.404;8.566;2022-10-31T05:51:14;96896.34;;;9.01;100.00
39243;BME280;29823;47.404;8.566;2022-10-31T05:53:42;96895.50;;;9.00;100.00
39243;BME280;29823;47.404;8.566;2022-10-31T05:56:09;96896.81;;;8.85;100.00
39243;BME280;29823;47.404;8.566;2022-10-31T05:58:37;96901.13;;;8.86;100.00
39243;BME280;29823;47.404;8.566;2022-10-31T06:01:05;96899.50;;;8.85;100.00
39243;BME280;29823;47.404;8.566;2022-10-31T06:03:34;96904.78;;;8.91;100.00
39243;BME280;29823;47.404;8.566;2022-10-31T06:06:02;96901.28;;;8.97;100.00
39243;BME280;29823;47.404;8.566;2022-10-31T06:08:30;96896.34;;;9.01;100.00
39243;BME280;29823;47.404;8.566;2022-10-31T06:10:58;96896.97;;;8.96;100.00
39243;BME280;29823;47.404;8.566;2022-10-31T06:13:26;96903.03;;;9.16;100.00
39243;BME280;29823;47.404;8.566;2022-10-31T06:15:53;96880.72;;;9.11;100.00
39243;BME280;29823;47.404;8.566;2022-10-31T06:18:21;96884.66;;;8.95;100.00
39243;BME280;29823;47.404;8.566;2022-10-31T06:20:50;96899.78;;;9.14;100.00
39243;BME280;29823;47.404;8.566;2022-10-31T06:23:18;96902.44;;;9.14;100.00
39243;BME280;29823;47.404;8.566;2022-10-31T06:25:48;96886.63;;;9.19;100.00
39243;BME280;29823;47.404;8.566;2022-10-31T06:28:16;96893.50;;;9.33;100.00
39243;BME280;29823;47.404;8.566;2022-10-31T06:30:44;96890.06;;;9.26;100.00
39243;BME280;29823;47.404;8.566;2022-10-31T06:33:11;96897.63;;;9.60;100.00
39243;BME280;29823;47.404;8.566;2022-10-31T06:35:44;96897.06;;;9.52;100.00
39243;BME280;29823;47.404;8.566;2022-10-31T06:38:14;96893.47;;;9.71;100.00
39243;BME280;29823;47.404;8.566;2022-10-31T06:40:42;96886.25;;;9.71;100.00
39243;BME280;29823;47.404;8.566;2022-10-31T06:43:09;96886.53;;;9.63;100.00
39243;BME280;29823;47.404;8.566;2022-10-31T06:45:37;96900.81;;;9.75;100.00
39243;BME280;29823;47.404;8.566;2022-10-31T06:48:07;96891.88;;;9.63;100.00
39243;BME280;29823;47.404;8.566;2022-10-31T06:50:43;96892.28;;;9.60;100.00
39243;BME280;29823;47.404;8.566;2022-10-31T06:53:11;96873.00;;;9.58;100.00
39243;BME280;29823;47.404;8.566;2022-10-31T06:55:42;96877.22;;;9.72;100.00
39243;BME280;29823;47.404;8.566;2022-10-31T06:58:10;96902.03;;;9.79;100.00
39243;BME280;29823;47.404;8.566;2022-10-31T07:00:38;96905.81;;;9.65;100.00
39243;BME280;29823;47.404;8.566;2022-10-31T07:03:09;96903.28;;;9.77;100.00
39243;BME280;29823;47.404;8.566;2022-10-31T07:05:38;96906.03;;;9.64;100.00
39243;BME280;29823;47.404;8.566;2022-10-31T07:08:07;96912.69;;;9.55;100.00
39243;BME280;29823;47.404;8.566;2022-10-31T07:10:36;96905.53;;;9.49;100.00
39243;BME280;29823;47.404;8.566;2022-10-31T07:13:11;96913.94;;;9.46;100.00
39243;BME280;29823;47.404;8.566;2022-10-31T07:15:40;96915.94;;;9.57;100.00
39243;BME280;29823;47.404;8.566;2022-10-31T07:18:10;96919.84;;;9.85;100.00
39243;BME280;29823;47.404;8.566;2022-10-31T07:20:39;96918.28;;;10.02;100.00
39243;BME280;29823;47.404;8.566;2022-10-31T07:23:07;96921.91;;;10.14;100.00
39243;BME280;29823;47.404;8.566;2022-10-31T07:25:35;96926.28;;;10.09;100.00
39243;BME280;29823;47.404;8.566;2022-10-31T07:28:03;96919.22;;;10.14;100.00
39243;BME280;29823;47.404;8.566;2022-10-31T07:30:32;96914.97;;;10.31;100.00
39243;BME280;29823;47.404;8.566;2022-10-31T07:33:00;96919.53;;;10.49;100.00
39243;BME280;29823;47.404;8.566;2022-10-31T07:35:28;96894.22;;;10.51;100.00
39243;BME280;29823;47.404;8.566;2022-10-31T07:37:57;96913.97;;;10.68;100.00
39243;BME280;29823;47.404;8.566;2022-10-31T07:40:25;96914.44;;;10.65;100.00
39243;BME280;29823;47.404;8.566;2022-10-31T07:42:53;96916.44;;;10.52;100.00
39243;BME280;29823;47.404;8.566;2022-10-31T07:45:21;96915.13;;;10.36;100.00
39243;BME280;29823;47.404;8.566;2022-10-31T07:47:51;96916.16;;;10.35;100.00
39243;BME280;29823;47.404;8.566;2022-10-31T07:50:21;96912.03;;;10.39;100.00
39243;BME280;29823;47.404;8.566;2022-10-31T07:52:58;96912.72;;;10.53;100.00
39243;BME280;29823;47.404;8.566;2022-10-31T07:55:26;96909.88;;;10.48;100.00
39243;BME280;29823;47.404;8.566;2022-10-31T07:57:58;96897.19;;;10.61;100.00
39243;BME280;29823;47.404;8.566;2022-10-31T08:00:27;96911.63;;;10.78;100.00
39243;BME280;29823;47.404;8.566;2022-10-31T08:03:01;96915.31;;;10.95;100.00
39243;BME280;29823;47.404;8.566;2022-10-31T08:05:30;96906.25;;;10.96;100.00
39243;BME280;29823;47.404;8.566;2022-10-31T08:07:58;96907.75;;;10.92;100.00
39243;BME280;29823;47.404;8.566;2022-10-31T08:10:27;96911.75;;;11.01;100.00
39243;BME280;29823;47.404;8.566;2022-10-31T08:12:56;96912.00;;;11.00;100.00
39243;BME280;29823;47.404;8.566;2022-10-31T08:15:25;96913.81;;;11.17;100.00
39243;BME280;29823;47.404;8.566;2022-10-31T08:17:53;96914.19;;;11.21;100.00
39243;BME280;29823;47.404;8.566;2022-10-31T08:20:22;96909.31;;;11.47;100.00
39243;BME280;29823;47.404;8.566;2022-10-31T08:22:55;96899.31;;;11.54;100.00
39243;BME280;29823;47.404;8.566;2022-10-31T08:25:23;96914.06;;;11.63;100.00
39243;BME280;29823;47.404;8.566;2022-10-31T08:27:52;96906.84;;;11.46;100.00
39243;BME280;29823;47.404;8.566;2022-10-31T08:30:22;96909.44;;;11.52;100.00
39243;BME280;29823;47.404;8.566;2022-10-31T08:32:57;96906.06;;;11.86;100.00
39243;BME280;29823;47.404;8.566;2022-10-31T08:35:26;96905.84;;;11.88;100.00
39243;BME280;29823;47.404;8.566;2022-10-31T08:37:54;96893.19;;;12.06;100.00
39243;BME280;29823;47.404;8.566;2022-10-31T08:40:23;96901.59;;;11.69;100.00
39243;BME280;29823;47.404;8.566;2022-10-31T08:42:58;96894.38;;;11.69;100.00
39243;BME280;29823;47.404;8.566;2022-10-31T08:45:27;96892.63;;;11.63;100.00
39243;BME280;29823;47.404;8.566;2022-10-31T08:47:58;96897.16;;;11.63;100.00
39243;BME280;29823;47.404;8.566;2022-10-31T08:50:30;96890.84;;;11.57;100.00
39243;BME280;29823;47.404;8.566;2022-10-31T08:53:01;96891.97;;;11.50;100.00
39243;BME280;29823;47.404;8.566;2022-10-31T08:55:33;96882.88;;;11.51;100.00
39243;BME280;29823;47.404;8.566;2022-10-31T08:58:02;96900.00;;;11.50;100.00
39243;BME280;29823;47.404;8.566;2022-10-31T09:00:30;96900.00;;;11.50;100.00
39243;BME280;29823;47.404;8.566;2022-10-31T09:02:59;96912.06;;;11.41;100.00
39243;BME280;29823;47.404;8.566;2022-10-31T09:05:29;96901.69;;;11.92;100.00
39243;BME280;29823;47.404;8.566;2022-10-31T09:07:58;96886.75;;;11.25;100.00
39243;BME280;29823;47.404;8.566;2022-10-31T09:10:28;96908.84;;;11.50;100.00
39243;BME280;29823;47.404;8.566;2022-10-31T09:12:57;96897.50;;;11.37;100.00
39243;BME280;29823;47.404;8.566;2022-10-31T09:15:25;96896.63;;;11.43;100.00
39243;BME280;29823;47.404;8.566;2022-10-31T09:17:54;96902.09;;;11.77;100.00
39243;BME280;29823;47.404;8.566;2022-10-31T09:20:23;96897.72;;;12.06;100.00
39243;BME280;29823;47.404;8.566;2022-10-31T09:22:56;96890.31;;;12.31;100.00
39243;BME280;29823;47.404;8.566;2022-10-31T09:25:26;96877.69;;;12.66;100.00
39243;BME280;29823;47.404;8.566;2022-10-31T09:27:56;96866.88;;;12.49;100.00
39243;BME280;29823;47.404;8.566;2022-10-31T09:30:26;96874.75;;;12.79;100.00
39243;BME280;29823;47.404;8.566;2022-10-31T09:32:55;96877.16;;;12.92;100.00
39243;BME280;29823;47.404;8.566;2022-10-31T09:35:23;96874.63;;;12.97;100.00
39243;BME280;29823;47.404;8.566;2022-10-31T09:37:56;96871.13;;;12.85;100.00
39243;BME280;29823;47.404;8.566;2022-10-31T09:40:34;96864.47;;;12.87;100.00
39243;BME280;29823;47.404;8.566;2022-10-31T09:43:11;96865.66;;;12.68;100.00
39243;BME280;29823;47.404;8.566;2022-10-31T09:45:47;96859.94;;;12.76;100.00
39243;BME280;29823;47.404;8.566;2022-10-31T09:48:27;96852.03;;;13.21;100.00
39243;BME280;29823;47.404;8.566;2022-10-31T09:51:01;96866.16;;;13.16;100.00
39243;BME280;29823;47.404;8.566;2022-10-31T09:53:37;96861.09;;;13.03;100.00
39243;BME280;29823;47.404;8.566;2022-10-31T09:56:09;96871.22;;;13.01;100.00
39243;BME280;29823;47.404;8.566;2022-10-31T09:58:42;96861.25;;;12.62;100.00
39243;BME280;29823;47.404;8.566;2022-10-31T10:01:23;96869.25;;;12.97;100.00
39243;BME280;29823;47.404;8.566;2022-10-31T10:03:58;96866.03;;;12.60;100.00
39243;BME280;29823;47.404;8.566;2022-10-31T10:06:29;96857.16;;;12.83;100.00
39243;BME280;29823;47.404;8.566;2022-10-31T10:09:01;96853.53;;;12.77;100.00
39243;BME280;29823;47.404;8.566;2022-10-31T10:11:39;96836.41;;;12.55;100.00
39243;BME280;29823;47.404;8.566;2022-10-31T10:14:21;96847.81;;;12.62;100.00
39243;BME280;29823;47.404;8.566;2022-10-31T10:17:11;96846.66;;;12.70;100.00
39243;BME280;29823;47.404;8.566;2022-10-31T10:20:05;96834.91;;;12.48;100.00
39243;BME280;29823;47.404;8.566;2022-10-31T10:22:43;96844.31;;;12.73;100.00
39243;BME280;29823;47.404;8.566;2022-10-31T10:25:21;96850.28;;;12.75;100.00
39243;BME280;29823;47.404;8.566;2022-10-31T10:27:58;96849.63;;;13.08;100.00
39243;BME280;29823;47.404;8.566;2022-10-31T10:30:35;96833.56;;;12.96;100.00
39243;BME280;29823;47.404;8.566;2022-10-31T10:33:10;96838.16;;;12.61;100.00
39243;BME280;29823;47.404;8.566;2022-10-31T10:35:42;96842.66;;;12.84;100.00
39243;BME280;29823;47.404;8.566;2022-10-31T10:38:17;96848.53;;;12.69;100.00
39243;BME280;29823;47.404;8.566;2022-10-31T10:40:49;96842.06;;;12.82;100.00
39243;BME280;29823;47.404;8.566;2022-10-31T10:43:22;96840.56;;;12.97;100.00
39243;BME280;29823;47.404;8.566;2022-10-31T10:45:55;96833.31;;;12.98;100.00
39243;BME280;29823;47.404;8.566;2022-10-31T10:48:51;96829.16;;;12.67;100.00
39243;BME280;29823;47.404;8.566;2022-10-31T10:51:23;96839.00;;;12.62;100.00
39243;BME280;29823;47.404;8.566;2022-10-31T10:57:38;96835.97;;;12.58;100.00
39243;BME280;29823;47.404;8.566;2022-10-31T11:00:29;96832.50;;;12.97;100.00
39243;BME280;29823;47.404;8.566;2022-10-31T11:02:58;96835.06;;;12.92;100.00
39243;BME280;29823;47.404;8.566;2022-10-31T11:05:33;96832.72;;;13.07;100.00
39243;BME280;29823;47.404;8.566;2022-10-31T11:08:04;96826.59;;;13.40;100.00
39243;BME280;29823;47.404;8.566;2022-10-31T11:10:32;96824.06;;;13.78;100.00
39243;BME280;29823;47.404;8.566;2022-10-31T11:13:05;96818.69;;;13.61;100.00
39243;BME280;29823;47.404;8.566;2022-10-31T11:15:39;96819.41;;;13.73;100.00
39243;BME280;29823;47.404;8.566;2022-10-31T11:18:20;96820.16;;;13.85;100.00
39243;BME280;29823;47.404;8.566;2022-10-31T11:20:55;96809.41;;;14.02;100.00
39243;BME280;29823;47.404;8.566;2022-10-31T11:23:25;96807.03;;;14.38;100.00
39243;BME280;29823;47.404;8.566;2022-10-31T11:25:55;96798.47;;;14.63;100.00
39243;BME280;29823;47.404;8.566;2022-10-31T11:28:25;96790.81;;;14.33;100.00
39243;BME280;29823;47.404;8.566;2022-10-31T11:30:55;96789.88;;;14.23;100.00
39243;BME280;29823;47.404;8.566;2022-10-31T11:33:31;96789.34;;;14.26;100.00
39243;BME280;29823;47.404;8.566;2022-10-31T11:36:01;96790.91;;;14.05;100.00
39243;BME280;29823;47.404;8.566;2022-10-31T11:38:34;96790.47;;;14.13;100.00
39243;BME280;29823;47.404;8.566;2022-10-31T11:41:10;96793.66;;;14.43;100.00
39243;BME280;29823;47.404;8.566;2022-10-31T11:43:53;96791.72;;;15.03;100.00
39243;BME280;29823;47.404;8.566;2022-10-31T11:46:33;96773.41;;;15.05;100.00
39243;BME280;29823;47.404;8.566;2022-10-31T11:49:01;96770.09;;;15.20;100.00
39243;BME280;29823;47.404;8.566;2022-10-31T11:51:32;96771.75;;;14.78;100.00
39243;BME280;29823;47.404;8.566;2022-10-31T11:54:01;96773.75;;;14.87;100.00
39243;BME280;29823;47.404;8.566;2022-10-31T11:56:38;96763.59;;;15.42;100.00
39243;BME280;29823;47.404;8.566;2022-10-31T11:59:18;96753.03;;;15.36;100.00
39243;BME280;29823;47.404;8.566;2022-10-31T12:01:49;96751.59;;;15.91;100.00
39243;BME280;29823;47.404;8.566;2022-10-31T12:04:18;96752.19;;;15.93;100.00
39243;BME280;29823;47.404;8.566;2022-10-31T12:06:47;96747.94;;;16.44;100.00
39243;BME280;29823;47.404;8.566;2022-10-31T12:09:20;96738.34;;;16.73;100.00
39243;BME280;29823;47.404;8.566;2022-10-31T12:11:55;96727.47;;;17.39;100.00
39243;BME280;29823;47.404;8.566;2022-10-31T12:14:36;96726.88;;;17.32;100.00
39243;BME280;29823;47.404;8.566;2022-10-31T12:17:14;96721.94;;;16.99;100.00
39243;BME280;29823;47.404;8.566;2022-10-31T12:19:49;96720.91;;;17.10;100.00
39243;BME280;29823;47.404;8.566;2022-10-31T12:22:29;96709.09;;;17.61;100.00
39243;BME280;29823;47.404;8.566;2022-10-31T12:25:10;96717.22;;;17.46;100.00
39243;BME280;29823;47.404;8.566;2022-10-31T12:27:55;96712.53;;;17.17;100.00
39243;BME280;29823;47.404;8.566;2022-10-31T12:30:38;96709.94;;;17.52;100.00
39243;BME280;29823;47.404;8.566;2022-10-31T12:36:10;96700.81;;;16.76;100.00
39243;BME280;29823;47.404;8.566;2022-10-31T12:38:55;96689.38;;;16.44;100.00
39243;BME280;29823;47.404;8.566;2022-10-31T12:41:37;96677.81;;;16.07;100.00
39243;BME280;29823;47.404;8.566;2022-10-31T12:44:18;96670.63;;;15.81;100.00
39243;BME280;29823;47.404;8.566;2022-10-31T12:47:04;96661.94;;;15.69;100.00
39243;BME280;29823;47.404;8.566;2022-10-31T12:49:44;96667.88;;;15.66;100.00
39243;BME280;29823;47.404;8.566;2022-10-31T12:52:29;96666.38;;;15.49;100.00
39243;BME280;29823;47.404;8.566;2022-10-31T12:55:09;96655.41;;;15.29;100.00
39243;BME280;29823;47.404;8.566;2022-10-31T12:57:45;96638.13;;;15.25;100.00
39243;BME280;29823;47.404;8.566;2022-10-31T13:00:15;96650.84;;;15.29;100.00
39243;BME280;29823;47.404;8.566;2022-10-31T13:02:50;96633.56;;;15.25;100.00
39243;BME280;29823;47.404;8.566;2022-10-31T13:05:24;96635.03;;;15.11;100.00
39243;BME280;29823;47.404;8.566;2022-10-31T13:07:58;96629.63;;;15.06;100.00
39243;BME280;29823;47.404;8.566;2022-10-31T13:10:32;96629.59;;;15.01;100.00
39243;BME280;29823;47.404;8.566;2022-10-31T13:13:06;96631.53;;;14.79;100.00
39243;BME280;29823;47.404;8.566;2022-10-31T13:15:49;96619.97;;;14.52;100.00
39243;BME280;29823;47.404;8.566;2022-10-31T13:18:26;96615.91;;;14.50;100.00
39243;BME280;29823;47.404;8.566;2022-10-31T13:20:55;96618.19;;;14.41;100.00
39243;BME280;29823;47.404;8.566;2022-10-31T13:23:29;96616.91;;;14.22;100.00
39243;BME280;29823;47.404;8.566;2022-10-31T13:26:22;96611.44;;;14.17;100.00
39243;BME280;29823;47.404;8.566;2022-10-31T13:28:56;96612.66;;;14.26;100.00